New Boston, New Hampshire
Current Conditions -  °F | °C
As of 12:53 AM on Monday 29 Dec 2014 (Local Time) from KMHT Reporting Station
Broken Clouds Broken Clouds  
Wind Chill: 31°   Ceiling: 20000
Heat Index: 37°   Visibility: 10mi
Dew Point: 20°   Wind: 8mph
Humidity: 50%   Direction: 290°WNW
Pressure: 29.98"   Gusts: 17mph
Location:  42.98°N, 71.69°W
Report Text: KMHT 290553Z 29007G15KT 10SM SCT047 BKN200 03/M07 A2998 RMK AO2 SLP168 T00281067 10067 20028 51019
Loading
Personal Weather Stations






























Interactive Weather Map New forecast layout! Learn more

10-Day Weather Forecast

Advertisements
Track Severe Weather on mobile